sensor_id;sensor_type;location;lat;lon;timestamp;pressure;altitude;pressure_sealevel;temperature
11424;BMP180;5768;51.476;7.210;2023-05-10T00:02:27;99463.00;;;17.00
11424;BMP180;5768;51.476;7.210;2023-05-10T00:07:29;99460.00;;;17.00
11424;BMP180;5768;51.476;7.210;2023-05-10T00:12:32;99457.00;;;17.00
11424;BMP180;5768;51.476;7.210;2023-05-10T00:17:36;99462.00;;;17.00
11424;BMP180;5768;51.476;7.210;2023-05-10T00:22:38;99460.00;;;17.10
11424;BMP180;5768;51.476;7.210;2023-05-10T00:27:40;99464.00;;;17.10
11424;BMP180;5768;51.476;7.210;2023-05-10T00:32:44;99467.00;;;17.00
11424;BMP180;5768;51.476;7.210;2023-05-10T00:37:46;99463.00;;;17.10
11424;BMP180;5768;51.476;7.210;2023-05-10T00:42:48;99454.00;;;17.10
11424;BMP180;5768;51.476;7.210;2023-05-10T00:47:52;99455.00;;;17.10
11424;BMP180;5768;51.476;7.210;2023-05-10T00:52:56;99458.00;;;17.10
11424;BMP180;5768;51.476;7.210;2023-05-10T00:57:58;99461.00;;;17.10
11424;BMP180;5768;51.476;7.210;2023-05-10T01:03:03;99458.00;;;17.00
11424;BMP180;5768;51.476;7.210;2023-05-10T01:08:06;99460.00;;;17.10
11424;BMP180;5768;51.476;7.210;2023-05-10T01:13:10;99468.00;;;17.10
11424;BMP180;5768;51.476;7.210;2023-05-10T01:18:15;99475.00;;;17.10
11424;BMP180;5768;51.476;7.210;2023-05-10T01:23:45;99472.00;;;17.10
11424;BMP180;5768;51.476;7.210;2023-05-10T01:29:42;99470.00;;;17.10
11424;BMP180;5768;51.476;7.210;2023-05-10T01:34:57;99470.00;;;17.10
11424;BMP180;5768;51.476;7.210;2023-05-10T01:40:13;99483.00;;;17.10
11424;BMP180;5768;51.476;7.210;2023-05-10T01:45:30;99477.00;;;17.00
11424;BMP180;5768;51.476;7.210;2023-05-10T01:50:40;99478.00;;;16.80
11424;BMP180;5768;51.476;7.210;2023-05-10T01:55:48;99486.00;;;16.80
11424;BMP180;5768;51.476;7.210;2023-05-10T02:00:53;99474.00;;;16.60
11424;BMP180;5768;51.476;7.210;2023-05-10T02:05:59;99485.00;;;16.60
11424;BMP180;5768;51.476;7.210;2023-05-10T02:11:03;99491.00;;;16.60
11424;BMP180;5768;51.476;7.210;2023-05-10T02:16:07;99498.00;;;16.60
11424;BMP180;5768;51.476;7.210;2023-05-10T02:21:13;99496.00;;;16.60
11424;BMP180;5768;51.476;7.210;2023-05-10T02:26:20;99501.00;;;16.60
11424;BMP180;5768;51.476;7.210;2023-05-10T02:31:26;99508.00;;;16.50
11424;BMP180;5768;51.476;7.210;2023-05-10T02:36:30;99507.00;;;16.40
11424;BMP180;5768;51.476;7.210;2023-05-10T02:41:33;99511.00;;;16.40
11424;BMP180;5768;51.476;7.210;2023-05-10T02:46:36;99510.00;;;16.30
11424;BMP180;5768;51.476;7.210;2023-05-10T02:51:44;99509.00;;;16.20
11424;BMP180;5768;51.476;7.210;2023-05-10T02:56:54;99511.00;;;16.30
11424;BMP180;5768;51.476;7.210;2023-05-10T03:01:59;99504.00;;;16.40
11424;BMP180;5768;51.476;7.210;2023-05-10T03:07:04;99507.00;;;16.40
11424;BMP180;5768;51.476;7.210;2023-05-10T03:12:13;99522.00;;;16.50
11424;BMP180;5768;51.476;7.210;2023-05-10T03:17:29;99512.00;;;16.50
11424;BMP180;5768;51.476;7.210;2023-05-10T03:22:37;99515.00;;;16.60
11424;BMP180;5768;51.476;7.210;2023-05-10T03:27:43;99515.00;;;16.60
11424;BMP180;5768;51.476;7.210;2023-05-10T03:32:45;99523.00;;;16.60
11424;BMP180;5768;51.476;7.210;2023-05-10T03:37:50;99528.00;;;16.50
11424;BMP180;5768;51.476;7.210;2023-05-10T03:42:52;99528.00;;;16.50
11424;BMP180;5768;51.476;7.210;2023-05-10T03:47:55;99540.00;;;16.60
11424;BMP180;5768;51.476;7.210;2023-05-10T03:52:58;99536.00;;;16.50
11424;BMP180;5768;51.476;7.210;2023-05-10T03:58:00;99543.00;;;16.60
11424;BMP180;5768;51.476;7.210;2023-05-10T04:03:03;99546.00;;;16.70
11424;BMP180;5768;51.476;7.210;2023-05-10T04:08:06;99545.00;;;16.80
11424;BMP180;5768;51.476;7.210;2023-05-10T04:13:09;99543.00;;;16.90
11424;BMP180;5768;51.476;7.210;2023-05-10T04:18:12;99543.00;;;16.80
11424;BMP180;5768;51.476;7.210;2023-05-10T04:23:16;99551.00;;;16.90
11424;BMP180;5768;51.476;7.210;2023-05-10T04:28:18;99557.00;;;16.70
11424;BMP180;5768;51.476;7.210;2023-05-10T04:33:20;99544.00;;;16.70
11424;BMP180;5768;51.476;7.210;2023-05-10T04:38:24;99553.00;;;16.70
11424;BMP180;5768;51.476;7.210;2023-05-10T04:43:26;99556.00;;;16.70
11424;BMP180;5768;51.476;7.210;2023-05-10T04:48:28;99553.00;;;16.60
11424;BMP180;5768;51.476;7.210;2023-05-10T04:53:32;99565.00;;;16.60
11424;BMP180;5768;51.476;7.210;2023-05-10T04:58:34;99567.00;;;16.60
11424;BMP180;5768;51.476;7.210;2023-05-10T05:03:37;99567.00;;;16.60
11424;BMP180;5768;51.476;7.210;2023-05-10T05:08:40;99568.00;;;16.70
11424;BMP180;5768;51.476;7.210;2023-05-10T05:13:42;99577.00;;;16.70
11424;BMP180;5768;51.476;7.210;2023-05-10T05:18:45;99587.00;;;16.70
11424;BMP180;5768;51.476;7.210;2023-05-10T05:23:48;99589.00;;;16.70
11424;BMP180;5768;51.476;7.210;2023-05-10T05:28:51;99582.00;;;16.80
11424;BMP180;5768;51.476;7.210;2023-05-10T05:33:55;99585.00;;;16.80
11424;BMP180;5768;51.476;7.210;2023-05-10T05:38:59;99591.00;;;17.10
11424;BMP180;5768;51.476;7.210;2023-05-10T05:44:01;99582.00;;;17.20
11424;BMP180;5768;51.476;7.210;2023-05-10T05:49:03;99602.00;;;17.20
11424;BMP180;5768;51.476;7.210;2023-05-10T05:54:07;99607.00;;;17.10
11424;BMP180;5768;51.476;7.210;2023-05-10T05:59:09;99613.00;;;17.10
11424;BMP180;5768;51.476;7.210;2023-05-10T06:04:12;99616.00;;;17.10
11424;BMP180;5768;51.476;7.210;2023-05-10T06:09:15;99615.00;;;17.20
11424;BMP180;5768;51.476;7.210;2023-05-10T06:14:20;99627.00;;;17.30
11424;BMP180;5768;51.476;7.210;2023-05-10T06:19:22;99635.00;;;17.40
11424;BMP180;5768;51.476;7.210;2023-05-10T06:24:25;99639.00;;;17.70
11424;BMP180;5768;51.476;7.210;2023-05-10T06:29:28;99651.00;;;17.70
11424;BMP180;5768;51.476;7.210;2023-05-10T06:34:30;99651.00;;;18.00
11424;BMP180;5768;51.476;7.210;2023-05-10T06:39:34;99649.00;;;18.20
11424;BMP180;5768;51.476;7.210;2023-05-10T06:44:36;99650.00;;;18.10
11424;BMP180;5768;51.476;7.210;2023-05-10T06:49:39;99654.00;;;18.20
11424;BMP180;5768;51.476;7.210;2023-05-10T06:54:42;99661.00;;;18.40
11424;BMP180;5768;51.476;7.210;2023-05-10T06:59:45;99665.00;;;18.40
11424;BMP180;5768;51.476;7.210;2023-05-10T07:04:47;99660.00;;;18.70
11424;BMP180;5768;51.476;7.210;2023-05-10T07:09:51;99665.00;;;18.90
11424;BMP180;5768;51.476;7.210;2023-05-10T07:14:53;99671.00;;;19.10
11424;BMP180;5768;51.476;7.210;2023-05-10T07:19:55;99671.00;;;19.10
11424;BMP180;5768;51.476;7.210;2023-05-10T07:24:59;99685.00;;;19.00
11424;BMP180;5768;51.476;7.210;2023-05-10T07:30:01;99689.00;;;18.90
11424;BMP180;5768;51.476;7.210;2023-05-10T07:35:04;99671.00;;;19.00
11424;BMP180;5768;51.476;7.210;2023-05-10T07:40:10;99677.00;;;19.40
11424;BMP180;5768;51.476;7.210;2023-05-10T07:45:12;99677.00;;;19.50
11424;BMP180;5768;51.476;7.210;2023-05-10T07:50:14;99680.00;;;19.50
11424;BMP180;5768;51.476;7.210;2023-05-10T07:55:19;99677.00;;;19.50
11424;BMP180;5768;51.476;7.210;2023-05-10T08:00:22;99685.00;;;19.20
11424;BMP180;5768;51.476;7.210;2023-05-10T08:05:24;99692.00;;;19.00
11424;BMP180;5768;51.476;7.210;2023-05-10T08:10:28;99690.00;;;19.00
11424;BMP180;5768;51.476;7.210;2023-05-10T08:15:30;99701.00;;;19.20
11424;BMP180;5768;51.476;7.210;2023-05-10T08:20:32;99707.00;;;19.20
11424;BMP180;5768;51.476;7.210;2023-05-10T08:25:36;99716.00;;;19.50
11424;BMP180;5768;51.476;7.210;2023-05-10T08:30:38;99716.00;;;19.60
11424;BMP180;5768;51.476;7.210;2023-05-10T08:35:40;99726.00;;;19.70
11424;BMP180;5768;51.476;7.210;2023-05-10T08:40:45;99741.00;;;19.50
11424;BMP180;5768;51.476;7.210;2023-05-10T08:45:49;99751.00;;;19.40
11424;BMP180;5768;51.476;7.210;2023-05-10T08:50:53;99743.00;;;19.40
11424;BMP180;5768;51.476;7.210;2023-05-10T08:55:58;99748.00;;;19.70
11424;BMP180;5768;51.476;7.210;2023-05-10T09:01:01;99753.00;;;19.90
11424;BMP180;5768;51.476;7.210;2023-05-10T09:06:03;99753.00;;;19.70
11424;BMP180;5768;51.476;7.210;2023-05-10T09:11:08;99751.00;;;19.50
11424;BMP180;5768;51.476;7.210;2023-05-10T09:16:11;99761.00;;;19.70
11424;BMP180;5768;51.476;7.210;2023-05-10T09:21:13;99766.00;;;20.00
11424;BMP180;5768;51.476;7.210;2023-05-10T09:26:22;99765.00;;;20.10
11424;BMP180;5768;51.476;7.210;2023-05-10T09:31:24;99765.00;;;20.20
11424;BMP180;5768;51.476;7.210;2023-05-10T09:36:56;99768.00;;;20.30
11424;BMP180;5768;51.476;7.210;2023-05-10T09:42:03;99768.00;;;20.30
11424;BMP180;5768;51.476;7.210;2023-05-10T09:47:06;99773.00;;;20.40
11424;BMP180;5768;51.476;7.210;2023-05-10T09:52:08;99768.00;;;20.20
11424;BMP180;5768;51.476;7.210;2023-05-10T09:57:20;99782.00;;;20.10
11424;BMP180;5768;51.476;7.210;2023-05-10T10:02:28;99785.00;;;20.50
11424;BMP180;5768;51.476;7.210;2023-05-10T10:07:31;99776.00;;;21.10
11424;BMP180;5768;51.476;7.210;2023-05-10T10:12:36;99772.00;;;21.70
11424;BMP180;5768;51.476;7.210;2023-05-10T10:17:38;99788.00;;;21.70
11424;BMP180;5768;51.476;7.210;2023-05-10T10:22:41;99784.00;;;21.60
11424;BMP180;5768;51.476;7.210;2023-05-10T10:28:00;99789.00;;;21.70
11424;BMP180;5768;51.476;7.210;2023-05-10T10:33:33;99788.00;;;22.00
11424;BMP180;5768;51.476;7.210;2023-05-10T10:38:55;99796.00;;;22.10
11424;BMP180;5768;51.476;7.210;2023-05-10T10:44:41;99797.00;;;21.60
11424;BMP180;5768;51.476;7.210;2023-05-10T10:49:50;99804.00;;;21.70
11424;BMP180;5768;51.476;7.210;2023-05-10T10:55:00;99801.00;;;21.40
11424;BMP180;5768;51.476;7.210;2023-05-10T11:00:27;99801.00;;;21.00
11424;BMP180;5768;51.476;7.210;2023-05-10T11:05:41;99799.00;;;20.90
11424;BMP180;5768;51.476;7.210;2023-05-10T11:10:52;99829.00;;;21.10
11424;BMP180;5768;51.476;7.210;2023-05-10T11:15:57;99823.00;;;21.10
11424;BMP180;5768;51.476;7.210;2023-05-10T11:21:01;99832.00;;;20.80
11424;BMP180;5768;51.476;7.210;2023-05-10T11:26:08;99831.00;;;20.70
11424;BMP180;5768;51.476;7.210;2023-05-10T11:31:15;99836.00;;;21.00
11424;BMP180;5768;51.476;7.210;2023-05-10T11:36:21;99833.00;;;21.00
11424;BMP180;5768;51.476;7.210;2023-05-10T11:41:26;99842.00;;;21.00
11424;BMP180;5768;51.476;7.210;2023-05-10T11:46:30;99834.00;;;21.10
11424;BMP180;5768;51.476;7.210;2023-05-10T11:51:34;99840.00;;;21.10
11424;BMP180;5768;51.476;7.210;2023-05-10T11:56:38;99844.00;;;20.70
11424;BMP180;5768;51.476;7.210;2023-05-10T12:01:42;99848.00;;;21.10
11424;BMP180;5768;51.476;7.210;2023-05-10T12:06:45;99853.00;;;21.20
11424;BMP180;5768;51.476;7.210;2023-05-10T12:11:48;99857.00;;;21.10
11424;BMP180;5768;51.476;7.210;2023-05-10T12:16:51;99867.00;;;21.10
11424;BMP180;5768;51.476;7.210;2023-05-10T12:21:53;99860.00;;;21.20
11424;BMP180;5768;51.476;7.210;2023-05-10T12:26:56;99870.00;;;21.60
11424;BMP180;5768;51.476;7.210;2023-05-10T12:32:00;99872.00;;;22.30
11424;BMP180;5768;51.476;7.210;2023-05-10T12:37:02;99861.00;;;22.70
11424;BMP180;5768;51.476;7.210;2023-05-10T12:42:05;99871.00;;;24.00
11424;BMP180;5768;51.476;7.210;2023-05-10T12:47:09;99863.00;;;24.70
11424;BMP180;5768;51.476;7.210;2023-05-10T12:52:11;99866.00;;;25.10
11424;BMP180;5768;51.476;7.210;2023-05-10T12:57:13;99877.00;;;24.20
11424;BMP180;5768;51.476;7.210;2023-05-10T13:02:17;99871.00;;;24.10
11424;BMP180;5768;51.476;7.210;2023-05-10T13:07:20;99873.00;;;24.80
11424;BMP180;5768;51.476;7.210;2023-05-10T13:12:23;99886.00;;;23.80
11424;BMP180;5768;51.476;7.210;2023-05-10T13:17:27;99882.00;;;23.50
11424;BMP180;5768;51.476;7.210;2023-05-10T13:22:29;99882.00;;;25.10
11424;BMP180;5768;51.476;7.210;2023-05-10T13:27:31;99891.00;;;26.40
11424;BMP180;5768;51.476;7.210;2023-05-10T13:32:35;99878.00;;;27.80
11424;BMP180;5768;51.476;7.210;2023-05-10T13:37:37;99899.00;;;30.20
11424;BMP180;5768;51.476;7.210;2023-05-10T13:42:40;99897.00;;;30.10
11424;BMP180;5768;51.476;7.210;2023-05-10T13:47:43;99892.00;;;29.30
11424;BMP180;5768;51.476;7.210;2023-05-10T13:52:45;99887.00;;;30.40
11424;BMP180;5768;51.476;7.210;2023-05-10T13:57:47;99897.00;;;31.80
11424;BMP180;5768;51.476;7.210;2023-05-10T14:02:51;99887.00;;;31.30
11424;BMP180;5768;51.476;7.210;2023-05-10T14:07:53;99879.00;;;32.00
11424;BMP180;5768;51.476;7.210;2023-05-10T14:12:55;99889.00;;;33.30
11424;BMP180;5768;51.476;7.210;2023-05-10T14:17:59;99881.00;;;33.80
11424;BMP180;5768;51.476;7.210;2023-05-10T14:23:01;99880.00;;;35.30
11424;BMP180;5768;51.476;7.210;2023-05-10T14:28:04;99878.00;;;35.60
11424;BMP180;5768;51.476;7.210;2023-05-10T14:33:08;99887.00;;;37.40
11424;BMP180;5768;51.476;7.210;2023-05-10T14:38:10;99882.00;;;36.90
11424;BMP180;5768;51.476;7.210;2023-05-10T14:43:13;99885.00;;;36.70
11424;BMP180;5768;51.476;7.210;2023-05-10T14:48:16;99885.00;;;33.30
11424;BMP180;5768;51.476;7.210;2023-05-10T14:53:18;99875.00;;;30.90
11424;BMP180;5768;51.476;7.210;2023-05-10T14:58:21;99875.00;;;32.80
11424;BMP180;5768;51.476;7.210;2023-05-10T15:03:24;99876.00;;;35.30
11424;BMP180;5768;51.476;7.210;2023-05-10T15:08:27;99879.00;;;35.60
11424;BMP180;5768;51.476;7.210;2023-05-10T15:13:29;99868.00;;;35.90
11424;BMP180;5768;51.476;7.210;2023-05-10T15:18:33;99873.00;;;37.90
11424;BMP180;5768;51.476;7.210;2023-05-10T15:23:35;99873.00;;;34.80
11424;BMP180;5768;51.476;7.210;2023-05-10T15:28:37;99877.00;;;35.90
11424;BMP180;5768;51.476;7.210;2023-05-10T15:33:41;99883.00;;;33.70
11424;BMP180;5768;51.476;7.210;2023-05-10T15:38:44;99880.00;;;31.30
11424;BMP180;5768;51.476;7.210;2023-05-10T15:43:46;99877.00;;;29.80
11424;BMP180;5768;51.476;7.210;2023-05-10T15:48:50;99880.00;;;28.30
11424;BMP180;5768;51.476;7.210;2023-05-10T15:53:52;99881.00;;;27.30
11424;BMP180;5768;51.476;7.210;2023-05-10T15:58:55;99882.00;;;26.70
11424;BMP180;5768;51.476;7.210;2023-05-10T16:03:59;99886.00;;;26.20
11424;BMP180;5768;51.476;7.210;2023-05-10T16:09:01;99881.00;;;25.20
11424;BMP180;5768;51.476;7.210;2023-05-10T16:14:04;99884.00;;;24.60
11424;BMP180;5768;51.476;7.210;2023-05-10T16:19:07;99887.00;;;24.10
11424;BMP180;5768;51.476;7.210;2023-05-10T16:24:10;99890.00;;;23.80
11424;BMP180;5768;51.476;7.210;2023-05-10T16:29:12;99894.00;;;23.60
11424;BMP180;5768;51.476;7.210;2023-05-10T16:34:16;99889.00;;;23.30
11424;BMP180;5768;51.476;7.210;2023-05-10T16:39:20;99900.00;;;23.10
11424;BMP180;5768;51.476;7.210;2023-05-10T16:44:22;99908.00;;;22.70
11424;BMP180;5768;51.476;7.210;2023-05-10T16:49:26;99912.00;;;22.30
11424;BMP180;5768;51.476;7.210;2023-05-10T16:54:28;99913.00;;;22.10
11424;BMP180;5768;51.476;7.210;2023-05-10T16:59:30;99919.00;;;21.70
11424;BMP180;5768;51.476;7.210;2023-05-10T17:04:34;99920.00;;;21.30
11424;BMP180;5768;51.476;7.210;2023-05-10T17:09:36;99925.00;;;20.90
11424;BMP180;5768;51.476;7.210;2023-05-10T17:14:39;99943.00;;;20.60
11424;BMP180;5768;51.476;7.210;2023-05-10T17:19:45;99942.00;;;20.60
11424;BMP180;5768;51.476;7.210;2023-05-10T17:24:47;99950.00;;;20.50
11424;BMP180;5768;51.476;7.210;2023-05-10T17:29:54;99950.00;;;20.30
11424;BMP180;5768;51.476;7.210;2023-05-10T17:34:58;99963.00;;;20.00
11424;BMP180;5768;51.476;7.210;2023-05-10T17:40:01;99972.00;;;20.00
11424;BMP180;5768;51.476;7.210;2023-05-10T17:45:07;99971.00;;;19.70
11424;BMP180;5768;51.476;7.210;2023-05-10T17:50:11;99982.00;;;19.70
11424;BMP180;5768;51.476;7.210;2023-05-10T17:55:13;99975.00;;;19.60
11424;BMP180;5768;51.476;7.210;2023-05-10T18:00:16;99984.00;;;19.50
11424;BMP180;5768;51.476;7.210;2023-05-10T18:05:20;99988.00;;;19.50
11424;BMP180;5768;51.476;7.210;2023-05-10T18:10:23;99996.00;;;19.50
11424;BMP180;5768;51.476;7.210;2023-05-10T18:15:26;99985.00;;;19.40
11424;BMP180;5768;51.476;7.210;2023-05-10T18:20:30;99988.00;;;19.40
11424;BMP180;5768;51.476;7.210;2023-05-10T18:25:32;99982.00;;;19.70
11424;BMP180;5768;51.476;7.210;2023-05-10T18:30:34;99990.00;;;19.50
11424;BMP180;5768;51.476;7.210;2023-05-10T18:35:38;99996.00;;;19.20
11424;BMP180;5768;51.476;7.210;2023-05-10T18:40:41;100000.00;;;19.10
11424;BMP180;5768;51.476;7.210;2023-05-10T18:45:43;100005.00;;;19.00
11424;BMP180;5768;51.476;7.210;2023-05-10T18:50:47;100004.00;;;18.70
11424;BMP180;5768;51.476;7.210;2023-05-10T18:55:55;100007.00;;;18.70
11424;BMP180;5768;51.476;7.210;2023-05-10T19:00:58;100013.00;;;18.70
11424;BMP180;5768;51.476;7.210;2023-05-10T19:06:02;100019.00;;;18.50
11424;BMP180;5768;51.476;7.210;2023-05-10T19:11:04;100031.00;;;18.40
11424;BMP180;5768;51.476;7.210;2023-05-10T19:16:11;100023.00;;;18.30
11424;BMP180;5768;51.476;7.210;2023-05-10T19:21:14;100026.00;;;18.20
11424;BMP180;5768;51.476;7.210;2023-05-10T19:26:17;100023.00;;;18.10
11424;BMP180;5768;51.476;7.210;2023-05-10T19:31:20;100035.00;;;18.10
11424;BMP180;5768;51.476;7.210;2023-05-10T19:36:24;100027.00;;;18.00
11424;BMP180;5768;51.476;7.210;2023-05-10T19:41:26;100032.00;;;18.00
11424;BMP180;5768;51.476;7.210;2023-05-10T19:46:28;100040.00;;;18.00
11424;BMP180;5768;51.476;7.210;2023-05-10T19:51:33;100033.00;;;17.90
11424;BMP180;5768;51.476;7.210;2023-05-10T19:56:35;100042.00;;;18.00
11424;BMP180;5768;51.476;7.210;2023-05-10T20:01:37;100040.00;;;18.10
11424;BMP180;5768;51.476;7.210;2023-05-10T20:06:41;100038.00;;;18.30
11424;BMP180;5768;51.476;7.210;2023-05-10T20:11:43;100040.00;;;18.40
11424;BMP180;5768;51.476;7.210;2023-05-10T20:16:45;100042.00;;;18.40
11424;BMP180;5768;51.476;7.210;2023-05-10T20:21:48;100036.00;;;18.40
11424;BMP180;5768;51.476;7.210;2023-05-10T20:26:51;100040.00;;;18.40
11424;BMP180;5768;51.476;7.210;2023-05-10T20:31:53;100041.00;;;18.50
11424;BMP180;5768;51.476;7.210;2023-05-10T20:36:57;100046.00;;;18.50
11424;BMP180;5768;51.476;7.210;2023-05-10T20:41:59;100040.00;;;18.30
11424;BMP180;5768;51.476;7.210;2023-05-10T20:47:02;100046.00;;;18.20
11424;BMP180;5768;51.476;7.210;2023-05-10T20:52:06;100043.00;;;18.20
11424;BMP180;5768;51.476;7.210;2023-05-10T20:57:09;100046.00;;;18.20
11424;BMP180;5768;51.476;7.210;2023-05-10T21:02:12;100051.00;;;18.30
11424;BMP180;5768;51.476;7.210;2023-05-10T21:07:16;100040.00;;;18.30
11424;BMP180;5768;51.476;7.210;2023-05-10T21:12:18;100038.00;;;18.20
11424;BMP180;5768;51.476;7.210;2023-05-10T21:17:23;100047.00;;;17.90
11424;BMP180;5768;51.476;7.210;2023-05-10T21:22:27;100045.00;;;17.80
11424;BMP180;5768;51.476;7.210;2023-05-10T21:27:29;100047.00;;;17.80
11424;BMP180;5768;51.476;7.210;2023-05-10T21:32:31;100051.00;;;17.80
11424;BMP180;5768;51.476;7.210;2023-05-10T21:37:44;100050.00;;;17.70
11424;BMP180;5768;51.476;7.210;2023-05-10T21:42:46;100046.00;;;17.60
11424;BMP180;5768;51.476;7.210;2023-05-10T21:47:49;100043.00;;;17.60
11424;BMP180;5768;51.476;7.210;2023-05-10T21:52:52;100041.00;;;17.60
11424;BMP180;5768;51.476;7.210;2023-05-10T21:57:55;100039.00;;;17.50
11424;BMP180;5768;51.476;7.210;2023-05-10T22:02:58;100047.00;;;17.40
11424;BMP180;5768;51.476;7.210;2023-05-10T22:08:02;100051.00;;;17.50
11424;BMP180;5768;51.476;7.210;2023-05-10T22:13:04;100038.00;;;17.50
11424;BMP180;5768;51.476;7.210;2023-05-10T22:18:06;100046.00;;;17.50
11424;BMP180;5768;51.476;7.210;2023-05-10T22:23:09;100054.00;;;17.60
11424;BMP180;5768;51.476;7.210;2023-05-10T22:28:13;100056.00;;;17.60
11424;BMP180;5768;51.476;7.210;2023-05-10T22:33:15;100056.00;;;17.60
11424;BMP180;5768;51.476;7.210;2023-05-10T22:38:19;100065.00;;;17.50
11424;BMP180;5768;51.476;7.210;2023-05-10T22:43:22;100063.00;;;17.50
11424;BMP180;5768;51.476;7.210;2023-05-10T22:48:24;100062.00;;;17.60
11424;BMP180;5768;51.476;7.210;2023-05-10T22:53:28;100056.00;;;17.70
11424;BMP180;5768;51.476;7.210;2023-05-10T22:58:30;100059.00;;;17.50
11424;BMP180;5768;51.476;7.210;2023-05-10T23:03:33;100053.00;;;17.40
11424;BMP180;5768;51.476;7.210;2023-05-10T23:08:36;100067.00;;;17.30
11424;BMP180;5768;51.476;7.210;2023-05-10T23:13:38;100064.00;;;17.30
11424;BMP180;5768;51.476;7.210;2023-05-10T23:18:41;100064.00;;;17.30
11424;BMP180;5768;51.476;7.210;2023-05-10T23:23:44;100065.00;;;17.30
11424;BMP180;5768;51.476;7.210;2023-05-10T23:28:46;100068.00;;;17.40
11424;BMP180;5768;51.476;7.210;2023-05-10T23:33:49;100074.00;;;17.50
11424;BMP180;5768;51.476;7.210;2023-05-10T23:38:52;100069.00;;;17.40
11424;BMP180;5768;51.476;7.210;2023-05-10T23:43:54;100063.00;;;17.30
11424;BMP180;5768;51.476;7.210;2023-05-10T23:48:57;100057.00;;;17.40
11424;BMP180;5768;51.476;7.210;2023-05-10T23:54:01;100060.00;;;17.40
11424;BMP180;5768;51.476;7.210;2023-05-10T23:59:03;100060.00;;;17.40
